Time;durP1;ratioP1;P1;durP2;ratioP2;P2;SDS_P1;SDS_P2;PMS_P1;PMS_P2;Temp;Humidity;BMP_temperature;BMP_pressure;BME280_temperature;BME280_humidity;BME280_pressure;Samples;Min_cycle;Max_cycle;Signal;HPM_P1;HPM_P2
2024/03/10 00:00:24;;;;;;;26.17;13.68;;;;;;;-1.29;100.00;96984.38;6112093;19;20459;-70
2024/03/10 00:02:26;;;;;;;22.75;12.60;;;;;;;-1.30;100.00;96991.72;6111741;19;20463;-70
2024/03/10 00:04:26;;;;;;;23.90;13.27;;;;;;;-1.17;100.00;96997.94;6112715;19;20010;-70
2024/03/10 00:06:26;;;;;;;23.70;11.63;;;;;;;-1.05;100.00;96994.47;6112632;19;20017;-70
2024/03/10 00:08:27;;;;;;;20.50;12.20;;;;;;;-0.98;100.00;96994.72;6113211;19;20419;-70
2024/03/10 00:10:28;;;;;;;23.83;13.43;;;;;;;-0.89;100.00;97000.81;6112973;19;20030;-70
2024/03/10 00:12:28;;;;;;;20.70;11.77;;;;;;;-0.80;100.00;96998.78;6110815;19;20010;-70
2024/03/10 00:14:29;;;;;;;23.98;12.93;;;;;;;-0.76;100.00;96991.53;6112526;19;20239;-70
2024/03/10 00:16:29;;;;;;;24.25;13.02;;;;;;;-0.75;100.00;96989.59;6111944;19;20646;-70
2024/03/10 00:18:30;;;;;;;24.02;12.80;;;;;;;-0.78;100.00;96993.78;6112936;19;20006;-70
2024/03/10 00:20:30;;;;;;;23.17;12.27;;;;;;;-0.79;100.00;96994.13;6112311;19;20007;-70
2024/03/10 00:22:31;;;;;;;21.63;12.90;;;;;;;-0.86;100.00;96995.50;6110702;19;20325;-70
2024/03/10 00:24:31;;;;;;;21.00;12.63;;;;;;;-0.87;100.00;96993.91;6111532;19;20014;-70
2024/03/10 00:26:31;;;;;;;23.52;12.95;;;;;;;-0.94;100.00;96996.41;6112309;19;20015;-70
2024/03/10 00:28:33;;;;;;;24.77;13.23;;;;;;;-0.97;100.00;96993.56;6112083;19;20010;-70
2024/03/10 00:30:34;;;;;;;24.30;14.27;;;;;;;-1.01;100.00;96990.72;6112385;19;20025;-70
2024/03/10 00:32:37;;;;;;;24.55;13.35;;;;;;;-0.97;100.00;96985.44;6110545;19;20006;-70
2024/03/10 00:34:38;;;;;;;23.33;13.32;;;;;;;-1.00;100.00;96981.44;6112205;19;20037;-70
2024/03/10 00:36:38;;;;;;;24.23;13.02;;;;;;;-1.06;100.00;96987.47;6112197;19;20003;-70
2024/03/10 00:38:38;;;;;;;22.42;13.30;;;;;;;-1.12;100.00;96978.75;6112637;19;20344;-70
2024/03/10 00:40:39;;;;;;;25.30;12.95;;;;;;;-1.23;100.00;96975.69;6110781;19;20346;-70
2024/03/10 00:42:39;;;;;;;21.70;12.20;;;;;;;-1.31;100.00;96981.22;6109853;19;20014;-70
2024/03/10 00:44:39;;;;;;;22.42;13.23;;;;;;;-1.42;100.00;96980.84;6110761;19;20030;-70
2024/03/10 00:46:40;;;;;;;21.35;13.20;;;;;;;-1.56;100.00;96975.75;6112423;19;20010;-70
2024/03/10 00:48:40;;;;;;;26.20;14.57;;;;;;;-1.64;100.00;96984.75;6110786;19;20007;-70
2024/03/10 00:50:40;;;;;;;23.92;13.40;;;;;;;-1.71;100.00;96979.09;6110441;19;20006;-70
2024/03/10 00:52:41;;;;;;;23.45;13.13;;;;;;;-1.72;100.00;96986.44;6108925;19;20002;-70
2024/03/10 00:54:41;;;;;;;24.20;12.55;;;;;;;-1.77;100.00;96981.22;6110947;19;20090;-70
2024/03/10 00:56:42;;;;;;;24.20;12.70;;;;;;;-1.70;100.00;96984.16;6111260;19;20023;-70
2024/03/10 00:58:42;;;;;;;25.60;12.65;;;;;;;-1.66;100.00;96978.84;6111107;19;20002;-70
2024/03/10 01:00:43;;;;;;;23.27;13.20;;;;;;;-1.67;100.00;96965.63;6110710;19;20002;-70
2024/03/10 01:02:47;;;;;;;20.38;11.82;;;;;;;-1.72;100.00;96967.44;6109792;19;20013;-70
2024/03/10 01:04:48;;;;;;;21.60;12.20;;;;;;;-1.75;100.00;96967.31;6110997;19;20070;-70
2024/03/10 01:06:48;;;;;;;22.95;12.45;;;;;;;-1.76;100.00;96971.94;6110966;19;20103;-70
2024/03/10 01:08:49;;;;;;;22.67;12.05;;;;;;;-1.78;100.00;96968.78;6108604;19;20012;-70
2024/03/10 01:10:50;;;;;;;24.73;12.73;;;;;;;-1.81;100.00;96955.91;6111345;19;20070;-70
2024/03/10 01:12:51;;;;;;;24.08;13.48;;;;;;;-1.82;100.00;96951.63;6108218;19;20011;-70
2024/03/10 01:14:51;;;;;;;22.95;12.75;;;;;;;-1.82;100.00;96964.34;6100916;19;20015;-70
2024/03/10 01:16:51;;;;;;;22.80;12.82;;;;;;;-1.85;100.00;96959.59;6110220;19;20414;-70
2024/03/10 01:18:52;;;;;;;26.25;13.55;;;;;;;-1.89;100.00;96964.91;6109687;19;20027;-70
2024/03/10 01:20:52;;;;;;;25.77;13.02;;;;;;;-1.90;100.00;96965.22;6109418;19;20023;-70
2024/03/10 01:22:53;;;;;;;22.05;12.75;;;;;;;-1.91;100.00;96963.63;6108720;19;20010;-70
2024/03/10 01:24:54;;;;;;;23.73;12.20;;;;;;;-1.94;100.00;96962.41;6109478;19;20038;-70
2024/03/10 01:26:55;;;;;;;23.50;12.60;;;;;;;-1.91;100.00;96961.72;6110213;19;20538;-70
2024/03/10 01:28:55;;;;;;;28.63;12.80;;;;;;;-1.94;100.00;96967.81;6110210;19;20030;-70
2024/03/10 01:30:55;;;;;;;20.48;12.10;;;;;;;-1.94;100.00;96967.81;6110090;19;20003;-70
2024/03/10 01:32:56;;;;;;;21.70;11.73;;;;;;;-1.93;100.00;96977.53;6107797;19;20002;-70
2024/03/10 01:34:56;;;;;;;24.13;12.68;;;;;;;-1.96;100.00;96963.88;6109614;19;20329;-70
2024/03/10 01:36:56;;;;;;;23.77;12.32;;;;;;;-1.92;100.00;96965.56;6110300;19;20014;-70
2024/03/10 01:38:56;;;;;;;23.80;12.77;;;;;;;-1.85;100.00;96968.53;6109584;19;20018;-70
2024/03/10 01:40:57;;;;;;;22.77;12.95;;;;;;;-1.82;100.00;96978.72;6109469;19;20325;-70
2024/03/10 01:42:58;;;;;;;22.20;12.43;;;;;;;-1.86;100.00;96969.66;6107179;19;20007;-70
2024/03/10 01:44:59;;;;;;;24.73;13.00;;;;;;;-1.86;100.00;96968.88;6109296;19;20017;-70
2024/03/10 01:47:00;;;;;;;23.90;12.52;;;;;;;-1.90;100.00;96971.47;6109574;19;20009;-70
2024/03/10 01:49:03;;;;;;;21.60;11.75;;;;;;;-1.91;100.00;96967.16;6109902;19;20007;-70
2024/03/10 01:51:05;;;;;;;24.17;12.35;;;;;;;-1.97;100.00;96960.38;6109055;19;20015;-70
2024/03/10 01:53:05;;;;;;;20.60;11.75;;;;;;;-1.96;100.00;96969.28;6108712;19;20011;-70
2024/03/10 01:55:08;;;;;;;26.63;12.95;;;;;;;-2.00;100.00;96963.72;6109096;19;20104;-70
2024/03/10 01:57:08;;;;;;;22.33;11.85;;;;;;;-2.05;100.00;96956.59;6110115;19;20003;-70
2024/03/10 01:59:12;;;;;;;24.63;12.82;;;;;;;-2.09;100.00;96950.25;6108825;19;20002;-70
2024/03/10 02:01:14;;;;;;;20.77;11.45;;;;;;;-2.12;100.00;96955.56;6106857;19;20006;-70
2024/03/10 02:03:15;;;;;;;18.33;11.27;;;;;;;-2.19;100.00;96945.25;6109926;19;20498;-70
2024/03/10 02:05:17;;;;;;;20.48;11.85;;;;;;;-2.24;100.00;96947.34;6107205;19;20085;-70
2024/03/10 02:07:18;;;;;;;22.25;11.75;;;;;;;-2.27;100.00;96946.13;6109673;19;20014;-70
2024/03/10 02:09:19;;;;;;;23.08;13.80;;;;;;;-2.28;100.00;96942.63;6109583;19;20020;-70
2024/03/10 02:11:20;;;;;;;18.98;11.55;;;;;;;-2.30;100.00;96944.88;6108480;19;20006;-70
2024/03/10 02:13:21;;;;;;;20.52;11.95;;;;;;;-2.35;100.00;96941.56;6107883;19;20010;-70
2024/03/10 02:15:22;;;;;;;21.48;12.10;;;;;;;-2.41;100.00;96935.53;6099426;19;20038;-70
2024/03/10 02:17:23;;;;;;;22.30;12.52;;;;;;;-2.41;100.00;96942.88;6101703;19;20457;-70
2024/03/10 02:19:24;;;;;;;22.02;12.40;;;;;;;-2.39;100.00;96935.22;6101413;19;20420;-70
2024/03/10 02:21:26;;;;;;;23.27;12.63;;;;;;;-2.45;100.00;96931.13;6099738;19;20089;-70
2024/03/10 02:23:40;;;;;;;23.58;12.27;;;;;;;-2.46;100.00;96938.47;6101374;19;20232;-70
2024/03/10 02:25:41;;;;;;;25.52;12.88;;;;;;;-2.50;100.00;96931.31;6099453;19;20465;-70
2024/03/10 02:27:44;;;;;;;23.25;12.68;;;;;;;-2.51;100.00;96941.34;6100894;19;20006;-70
2024/03/10 02:30:10;;;;;;;21.05;11.48;;;;;;;-2.46;100.00;96933.06;6101205;19;20638;-70
2024/03/10 02:48:24;;;;;;;21.08;11.57;;;;;;;-2.50;100.00;96929.41;6101223;19;20002;-70
2024/03/10 02:50:25;;;;;;;23.15;12.70;;;;;;;-2.53;100.00;96930.06;6100607;19;20338;-70
2024/03/10 02:52:26;;;;;;;23.40;12.93;;;;;;;-2.59;100.00;96921.34;6097771;19;19994;-70
2024/03/10 02:54:26;;;;;;;24.65;12.60;;;;;;;-2.62;100.00;96930.13;6100465;19;20347;-70
2024/03/10 02:56:26;;;;;;;30.15;13.90;;;;;;;-2.58;100.00;96917.50;6100809;19;20002;-70
2024/03/10 02:58:26;;;;;;;21.02;12.00;;;;;;;-2.55;100.00;96922.28;6100654;19;20006;-70
2024/03/10 03:00:28;;;;;;;29.73;12.77;;;;;;;-2.53;100.00;96926.56;6101170;19;20010;-70
2024/03/10 03:02:29;;;;;;;27.13;12.02;;;;;;;-2.57;100.00;96913.69;6098889;19;20013;-70
2024/03/10 03:04:30;;;;;;;23.38;11.43;;;;;;;-2.60;100.00;96908.16;6099871;19;20010;-70
2024/03/10 03:06:31;;;;;;;23.33;13.13;;;;;;;-2.59;100.00;96912.44;6100032;19;20044;-70
2024/03/10 03:08:31;;;;;;;23.10;12.80;;;;;;;-2.62;100.00;96904.97;6100880;19;20010;-70
2024/03/10 03:10:32;;;;;;;18.33;11.55;;;;;;;-2.64;100.00;96901.81;6100607;19;20369;-70
2024/03/10 03:12:32;;;;;;;26.38;12.77;;;;;;;-2.67;100.00;96899.75;6098751;19;20019;-70
2024/03/10 03:14:32;;;;;;;24.40;13.20;;;;;;;-2.68;100.00;96898.97;6102739;19;20319;-70
2024/03/10 03:16:32;;;;;;;22.90;12.48;;;;;;;-2.69;100.00;96900.09;6107337;19;20006;-70
2024/03/10 03:18:33;;;;;;;28.48;12.50;;;;;;;-2.66;100.00;96898.63;6108510;19;20005;-70
2024/03/10 03:20:34;;;;;;;22.73;12.25;;;;;;;-2.60;100.00;96910.84;6106608;19;20002;-70
2024/03/10 03:22:36;;;;;;;25.93;13.43;;;;;;;-2.53;100.00;96911.13;6107150;19;20011;-70
2024/03/10 03:24:36;;;;;;;26.27;12.43;;;;;;;-2.49;100.00;96912.03;6107894;19;20031;-70
2024/03/10 03:26:37;;;;;;;23.42;13.30;;;;;;;-2.49;100.00;96911.22;6107959;19;19998;-70
2024/03/10 03:28:37;;;;;;;22.55;12.43;;;;;;;-2.43;100.00;96908.00;6107499;19;20002;-70
2024/03/10 03:30:42;;;;;;;24.13;12.57;;;;;;;-2.41;100.00;96894.13;6108498;19;20010;-70
2024/03/10 03:32:42;;;;;;;23.83;12.48;;;;;;;-2.34;100.00;96903.28;6105974;19;20329;-70
2024/03/10 03:34:43;;;;;;;25.92;12.18;;;;;;;-2.32;100.00;96897.53;6107315;19;20010;-70
2024/03/10 03:36:43;;;;;;;24.55;12.95;;;;;;;-2.30;100.00;96900.72;6107472;19;20046;-70
2024/03/10 03:38:44;;;;;;;21.95;12.18;;;;;;;-2.33;100.00;96894.03;6107138;19;20011;-70
2024/03/10 03:40:44;;;;;;;21.85;12.07;;;;;;;-2.37;100.00;96890.44;6107254;19;20027;-70
2024/03/10 03:42:45;;;;;;;19.13;12.30;;;;;;;-2.40;100.00;96899.22;6106394;19;20409;-70
2024/03/10 03:44:45;;;;;;;25.42;13.55;;;;;;;-2.45;100.00;96891.31;6107521;19;20006;-70
2024/03/10 03:46:45;;;;;;;25.52;12.75;;;;;;;-2.41;100.00;96894.13;6107331;19;20344;-70
2024/03/10 03:48:46;;;;;;;23.38;13.25;;;;;;;-2.44;100.00;96889.38;6105986;19;20077;-70
2024/03/10 03:50:46;;;;;;;21.73;11.93;;;;;;;-2.48;100.00;96897.38;6107941;19;20017;-70
2024/03/10 03:52:49;;;;;;;21.17;12.73;;;;;;;-2.50;100.00;96896.91;6104735;19;20006;-70
2024/03/10 03:54:51;;;;;;;19.90;12.60;;;;;;;-2.54;100.00;96887.88;6107221;19;20006;-70
2024/03/10 03:56:51;;;;;;;25.52;12.70;;;;;;;-2.53;100.00;96886.75;6106477;19;20060;-70
2024/03/10 03:58:51;;;;;;;19.02;11.63;;;;;;;-2.51;100.00;96897.25;6106936;19;20010;-70
2024/03/10 04:00:52;;;;;;;20.88;11.65;;;;;;;-2.49;100.00;96892.28;6106392;19;20020;-70
2024/03/10 04:02:52;;;;;;;25.55;12.32;;;;;;;-2.52;100.00;96899.16;6105056;19;20011;-70
2024/03/10 04:04:53;;;;;;;28.33;13.38;;;;;;;-2.58;100.00;96898.56;6106570;19;20030;-70
2024/03/10 04:06:53;;;;;;;26.95;13.05;;;;;;;-2.57;100.00;96893.94;6106026;19;20010;-70
2024/03/10 04:08:54;;;;;;;21.48;12.27;;;;;;;-2.55;100.00;96902.53;6106405;19;20566;-70
2024/03/10 04:10:54;;;;;;;25.48;12.48;;;;;;;-2.51;100.00;96899.94;6105818;19;20410;-70
2024/03/10 04:12:54;;;;;;;24.00;13.15;;;;;;;-2.46;100.00;96894.34;6104391;19;20079;-71
2024/03/10 04:14:56;;;;;;;23.40;13.23;;;;;;;-2.43;100.00;96897.16;6107239;19;20360;-70
2024/03/10 04:16:56;;;;;;;22.70;12.63;;;;;;;-2.42;100.00;96892.53;6105841;19;20007;-70
2024/03/10 04:18:57;;;;;;;22.45;12.32;;;;;;;-2.39;100.00;96891.91;6106975;19;20011;-71
2024/03/10 04:20:57;;;;;;;24.27;12.20;;;;;;;-2.45;100.00;96883.16;6106510;19;20357;-70
2024/03/10 04:22:58;;;;;;;19.25;12.18;;;;;;;-2.42;100.00;96892.53;6104582;19;20025;-71
2024/03/10 04:24:58;;;;;;;21.35;12.35;;;;;;;-2.46;100.00;96892.44;6106551;19;20011;-71
2024/03/10 04:26:58;;;;;;;23.83;12.85;;;;;;;-2.51;100.00;96889.13;6106003;19;20030;-70
2024/03/10 04:28:59;;;;;;;21.98;12.20;;;;;;;-2.53;100.00;96877.84;6111588;19;19999;-70
2024/03/10 04:30:59;;;;;;;24.40;11.20;;;;;;;-2.53;100.00;96885.97;6112140;19;20015;-70
2024/03/10 04:33:00;;;;;;;20.90;12.07;;;;;;;-2.56;100.00;96882.78;6110853;19;20007;-70
2024/03/10 04:35:00;;;;;;;21.70;11.68;;;;;;;-2.59;100.00;96882.66;6110828;19;20007;-70
2024/03/10 04:37:01;;;;;;;23.38;12.15;;;;;;;-2.57;100.00;96881.19;6111448;19;19998;-70
2024/03/10 04:39:02;;;;;;;22.83;12.73;;;;;;;-2.63;100.00;96874.41;6112272;19;20017;-70
2024/03/10 04:41:02;;;;;;;20.40;12.85;;;;;;;-2.65;100.00;96871.25;6111531;19;20002;-70
2024/03/10 04:43:02;;;;;;;21.17;11.48;;;;;;;-2.69;100.00;96881.13;6109726;19;20090;-71
2024/03/10 04:45:03;;;;;;;23.58;12.85;;;;;;;-2.65;100.00;96867.72;6111909;19;20006;-70
2024/03/10 04:47:03;;;;;;;19.67;11.73;;;;;;;-2.63;100.00;96877.13;6109276;19;20002;-70
2024/03/10 04:49:04;;;;;;;24.98;12.70;;;;;;;-2.62;100.00;96867.06;6111843;19;20078;-70
2024/03/10 04:51:04;;;;;;;23.75;12.38;;;;;;;-2.61;100.00;96874.88;6110499;19;20423;-70
2024/03/10 04:53:04;;;;;;;21.40;12.55;;;;;;;-2.63;100.00;96871.69;6110336;19;20400;-70
2024/03/10 04:55:05;;;;;;;23.13;12.30;;;;;;;-2.64;100.00;96874.75;6111509;19;21212;-70
2024/03/10 04:57:06;;;;;;;22.52;12.20;;;;;;;-2.63;100.00;96876.31;6111268;19;20002;-70
2024/03/10 04:59:07;;;;;;;23.45;12.77;;;;;;;-2.65;100.00;96868.53;6110954;19;20002;-71
2024/03/10 05:01:09;;;;;;;24.05;11.95;;;;;;;-2.68;100.00;96862.97;6110367;19;20344;-70
2024/03/10 05:03:10;;;;;;;21.52;11.23;;;;;;;-2.76;100.00;96853.81;6109919;19;20002;-70
2024/03/10 05:05:11;;;;;;;21.63;12.13;;;;;;;-2.83;100.00;96856.25;6110599;19;20011;-71
2024/03/10 05:07:12;;;;;;;20.92;10.95;;;;;;;-2.85;100.00;96855.78;6111744;19;20025;-71
2024/03/10 05:09:12;;;;;;;29.23;14.63;;;;;;;-2.89;100.00;96841.34;6110850;19;20003;-70
2024/03/10 05:11:15;;;;;;;25.15;12.80;;;;;;;-2.89;100.00;96844.84;6109247;19;20010;-70
2024/03/10 05:13:16;;;;;;;23.15;11.23;;;;;;;-2.94;100.00;96845.03;6110601;19;20339;-70
2024/03/10 05:15:17;;;;;;;21.88;11.82;;;;;;;-2.96;100.00;96855.41;6110580;19;20467;-70
2024/03/10 05:17:17;;;;;;;21.30;11.65;;;;;;;-2.96;100.00;96852.69;6110073;19;20034;-70
2024/03/10 05:19:17;;;;;;;24.33;11.95;;;;;;;-2.91;100.00;96855.19;6108677;19;20013;-70
2024/03/10 05:21:18;;;;;;;20.92;11.80;;;;;;;-2.92;100.00;96842.78;6108470;19;20003;-70
2024/03/10 05:23:18;;;;;;;20.92;12.45;;;;;;;-2.98;100.00;96846.81;6106671;19;20006;-70
2024/03/10 05:25:18;;;;;;;22.42;12.48;;;;;;;-2.97;100.00;96848.41;6109744;19;20002;-70
2024/03/10 05:27:20;;;;;;;21.33;11.73;;;;;;;-2.95;100.00;96846.16;6109192;19;20010;-71
2024/03/10 05:29:20;;;;;;;18.92;10.90;;;;;;;-2.94;100.00;96846.94;6107361;19;20474;-71
2024/03/10 05:31:29;;;;;;;21.85;11.68;;;;;;;-2.93;100.00;96835.78;6106431;19;20258;-71
2024/03/10 05:33:30;;;;;;;22.02;12.45;;;;;;;-2.92;100.00;96839.28;6108861;19;20003;-71
2024/03/10 05:35:31;;;;;;;21.45;10.95;;;;;;;-2.86;100.00;96846.88;6108675;19;20002;-71
2024/03/10 05:37:32;;;;;;;21.58;13.07;;;;;;;-2.84;100.00;96839.22;6109709;19;20007;-71
2024/03/10 05:39:32;;;;;;;20.08;12.20;;;;;;;-2.84;100.00;96833.00;6109224;19;20007;-71
2024/03/10 05:41:33;;;;;;;22.10;12.32;;;;;;;-2.85;100.00;96831.44;6108236;19;20022;-71
2024/03/10 05:43:33;;;;;;;29.35;12.88;;;;;;;-2.85;100.00;96831.44;6108241;19;20034;-71
2024/03/10 05:45:34;;;;;;;22.85;12.82;;;;;;;-2.82;100.00;96828.03;6108387;19;20451;-71
2024/03/10 05:47:35;;;;;;;24.90;12.75;;;;;;;-2.82;100.00;96825.34;6108404;19;20003;-71
2024/03/10 05:49:35;;;;;;;21.52;11.00;;;;;;;-2.78;100.00;96822.78;6109456;19;20009;-71
2024/03/10 05:51:35;;;;;;;24.40;11.27;;;;;;;-2.77;100.00;96827.84;6107730;19;20002;-71
2024/03/10 05:53:36;;;;;;;20.63;12.40;;;;;;;-2.79;100.00;96807.66;6109818;19;20260;-71
2024/03/10 05:55:36;;;;;;;20.85;11.05;;;;;;;-2.78;100.00;96807.31;6109233;19;20557;-71
2024/03/10 05:57:39;;;;;;;19.33;11.77;;;;;;;-2.80;100.00;96811.50;6109527;19;20424;-71
2024/03/10 05:59:43;;;;;;;20.25;11.48;;;;;;;-2.79;100.00;96813.09;6108764;19;20017;-70
2024/03/10 06:01:46;;;;;;;23.60;12.32;;;;;;;-2.79;100.00;96811.16;6108198;19;20019;-70
2024/03/10 06:03:48;;;;;;;27.65;12.30;;;;;;;-2.78;100.00;96811.94;6108982;19;20010;-70
2024/03/10 06:05:48;;;;;;;20.27;11.63;;;;;;;-2.73;100.00;96811.72;6108882;19;19998;-71
2024/03/10 06:07:49;;;;;;;20.77;12.25;;;;;;;-2.68;100.00;96808.84;6109871;19;20077;-71
2024/03/10 06:09:49;;;;;;;20.58;11.18;;;;;;;-2.60;100.00;96806.03;6109416;19;20510;-71
2024/03/10 06:11:50;;;;;;;25.80;11.00;;;;;;;-2.54;100.00;96809.34;6106648;19;19998;-71
2024/03/10 06:13:50;;;;;;;22.63;11.73;;;;;;;-2.49;100.00;96819.94;6099529;19;20007;-71
2024/03/10 06:15:52;;;;;;;25.52;12.50;;;;;;;-2.42;100.00;96817.50;6108116;19;20007;-71
2024/03/10 06:18:15;;;;;;;19.73;11.55;;;;;;;-2.37;100.00;96822.72;6108086;19;20481;-71
2024/03/10 06:27:12;;;;;;;25.48;13.70;;;;;;;-2.32;100.00;96819.81;6108529;19;20020;-71
2024/03/10 06:29:13;;;;;;;25.58;13.10;;;;;;;-2.36;100.00;96818.09;6108264;19;20006;-71
2024/03/10 06:31:13;;;;;;;21.98;12.02;;;;;;;-2.42;100.00;96820.19;6106706;19;20459;-71
2024/03/10 06:33:14;;;;;;;25.58;13.05;;;;;;;-2.47;100.00;96828.56;6106429;19;20386;-71
2024/03/10 06:35:14;;;;;;;21.75;11.48;;;;;;;-2.42;100.00;96835.66;6108409;19;20017;-71
2024/03/10 06:37:14;;;;;;;23.63;12.45;;;;;;;-2.43;100.00;96832.16;6108591;19;20015;-71
2024/03/10 06:39:24;;;;;;;33.00;12.55;;;;;;;-2.42;100.00;96841.09;6108403;19;20330;-71
2024/03/10 06:41:24;;;;;;;20.20;11.75;;;;;;;-2.45;100.00;96836.34;6106078;19;20010;-71
2024/03/10 06:43:25;;;;;;;22.10;11.10;;;;;;;-2.46;100.00;96834.75;6107301;19;20338;-71
2024/03/10 06:45:25;;;;;;;24.17;12.45;;;;;;;-2.44;100.00;96836.00;6107830;19;20416;-71
2024/03/10 06:47:26;;;;;;;21.17;11.65;;;;;;;-2.37;100.00;96824.63;6108307;19;20102;-71
2024/03/10 06:49:26;;;;;;;25.27;13.38;;;;;;;-2.28;100.00;96825.34;6108452;19;20321;-71
2024/03/10 06:51:27;;;;;;;28.42;12.93;;;;;;;-2.22;100.00;96831.34;6105540;19;20109;-71
2024/03/10 06:53:27;;;;;;;23.52;12.40;;;;;;;-2.20;100.00;96827.16;6107310;19;20888;-71
2024/03/10 06:55:28;;;;;;;28.25;14.15;;;;;;;-2.19;100.00;96838.78;6107383;19;20023;-71
2024/03/10 06:57:29;;;;;;;28.00;14.40;;;;;;;-2.19;100.00;96834.16;6107739;19;20003;-71
2024/03/10 06:59:29;;;;;;;23.67;13.13;;;;;;;-2.16;100.00;96832.69;6106508;19;20006;-71
2024/03/10 07:01:30;;;;;;;41.28;20.30;;;;;;;-2.10;100.00;96836.78;6106784;19;20015;-71
2024/03/10 07:03:32;;;;;;;46.47;18.92;;;;;;;-2.07;100.00;96834.19;6106688;19;20017;-71
2024/03/10 07:05:33;;;;;;;50.60;25.23;;;;;;;-2.01;100.00;96846.38;6108731;19;20502;-71
2024/03/10 07:07:33;;;;;;;61.75;29.20;;;;;;;-1.99;100.00;96836.03;6108011;19;20017;-71
2024/03/10 07:09:35;;;;;;;47.45;23.05;;;;;;;-1.95;100.00;96836.13;6107440;19;20006;-71
2024/03/10 07:11:35;;;;;;;43.67;20.92;;;;;;;-1.91;100.00;96836.25;6106387;19;20014;-71
2024/03/10 07:13:39;;;;;;;31.38;15.18;;;;;;;-1.88;100.00;96828.25;6104914;19;20420;-71
2024/03/10 07:15:39;;;;;;;32.83;16.42;;;;;;;-1.86;100.00;96839.53;6098770;19;20010;-71
2024/03/10 07:17:40;;;;;;;45.97;23.73;;;;;;;-1.86;100.00;96831.41;6099932;19;20017;-71
2024/03/10 07:19:41;;;;;;;42.08;20.70;;;;;;;-1.82;100.00;96831.50;6098350;19;20017;-71
2024/03/10 07:21:44;;;;;;;70.93;31.25;;;;;;;-1.77;100.00;96834.78;6097888;19;20002;-71
2024/03/10 07:23:45;;;;;;;83.30;37.60;;;;;;;-1.73;100.00;96832.22;6098897;19;20342;-71
2024/03/10 07:25:45;;;;;;;66.90;34.90;;;;;;;-1.71;100.00;96825.31;6098279;19;20010;-71
2024/03/10 07:27:46;;;;;;;51.45;24.90;;;;;;;-1.67;100.00;96827.34;6098955;19;20009;-71
2024/03/10 07:29:46;;;;;;;40.85;21.25;;;;;;;-1.61;100.00;96823.28;6099144;19;20009;-70
2024/03/10 07:31:47;;;;;;;34.38;16.98;;;;;;;-1.57;100.00;96829.59;6097280;19;20216;-71
2024/03/10 07:33:47;;;;;;;29.67;15.07;;;;;;;-1.54;100.00;96808.03;6097414;19;20022;-71
2024/03/10 07:35:47;;;;;;;25.80;14.13;;;;;;;-1.48;100.00;96811.31;6093474;19;20016;-71
2024/03/10 07:37:47;;;;;;;28.10;14.60;;;;;;;-1.40;100.00;96812.31;6096711;19;20033;-71
2024/03/10 07:39:48;;;;;;;30.08;14.68;;;;;;;-1.33;100.00;96824.16;6099687;19;20216;-71
2024/03/10 07:41:48;;;;;;;30.95;16.60;;;;;;;-1.25;100.00;96817.03;6097761;19;20050;-71
2024/03/10 07:43:48;;;;;;;31.30;17.10;;;;;;;-1.19;100.00;96819.19;6099190;19;20010;-71
2024/03/10 07:45:49;;;;;;;46.25;22.90;;;;;;;-1.12;100.00;96826.75;6100386;19;20475;-71
2024/03/10 07:47:49;;;;;;;40.22;21.70;;;;;;;-1.07;100.00;96825.75;6099230;19;20011;-71
2024/03/10 07:49:50;;;;;;;44.55;23.13;;;;;;;-1.00;100.00;96832.16;6099739;19;20006;-70
2024/03/10 07:51:50;;;;;;;43.10;23.30;;;;;;;-0.93;100.00;96840.50;6097488;19;20007;-70
2024/03/10 07:53:50;;;;;;;38.70;20.88;;;;;;;-0.87;100.00;96841.84;6099553;19;20003;-70
2024/03/10 07:55:51;;;;;;;37.42;20.83;;;;;;;-0.78;100.00;96849.06;6098293;19;20021;-70
2024/03/10 07:57:52;;;;;;;45.28;21.17;;;;;;;-0.72;100.00;96848.50;6098368;19;20219;-70
2024/03/10 07:59:53;;;;;;;36.03;19.20;;;;;;;-0.64;100.00;96850.28;6097601;19;20036;-70
2024/03/10 08:01:53;;;;;;;32.97;17.88;;;;;;;-0.54;100.00;96843.56;6095982;19;20360;-70
2024/03/10 08:03:54;;;;;;;30.80;17.45;;;;;;;-0.47;100.00;96841.06;6103729;19;20707;-70
2024/03/10 08:05:55;;;;;;;33.22;18.13;;;;;;;-0.39;100.00;96850.19;6104419;19;20499;-71
2024/03/10 08:07:55;;;;;;;36.65;19.25;;;;;;;-0.33;100.00;96848.81;6103138;19;20007;-70
2024/03/10 08:09:56;;;;;;;41.22;19.20;;;;;;;-0.29;100.00;96846.97;6103683;19;20026;-71
2024/03/10 08:11:58;;;;;;;41.50;20.05;;;;;;;-0.25;100.00;96844.34;6100561;19;20013;-70
2024/03/10 08:13:59;;;;;;;41.05;21.75;;;;;;;-0.17;100.00;96838.75;6102015;19;20003;-70
2024/03/10 08:15:59;;;;;;;36.78;20.58;;;;;;;-0.11;100.00;96842.81;6110990;19;20026;-70
2024/03/10 08:17:59;;;;;;;40.22;21.38;;;;;;;-0.06;100.00;96845.28;6111225;19;20002;-70
2024/03/10 08:20:00;;;;;;;53.20;25.95;;;;;;;0.00;100.00;96843.09;6110350;19;20454;-70
2024/03/10 08:22:00;;;;;;;47.97;25.33;;;;;;;0.07;100.00;96850.63;6109306;19;20049;-70
2024/03/10 08:24:01;;;;;;;48.10;25.42;;;;;;;0.18;100.00;96857.16;6110353;19;20016;-70
2024/03/10 08:26:01;;;;;;;49.05;25.95;;;;;;;0.25;100.00;96854.63;6109755;19;20015;-71
2024/03/10 08:28:04;;;;;;;55.90;28.73;;;;;;;0.30;100.00;96839.97;6110029;19;20401;-70
2024/03/10 08:30:10;;;;;;;52.65;27.10;;;;;;;0.38;100.00;96837.06;6110658;19;20006;-70
2024/03/10 08:32:10;;;;;;;58.55;25.98;;;;;;;0.45;100.00;96839.16;6109025;19;20031;-70
2024/03/10 08:34:11;;;;;;;51.90;26.90;;;;;;;0.53;100.00;96835.47;6110171;19;20455;-70
2024/03/10 08:36:11;;;;;;;51.55;26.05;;;;;;;0.59;100.00;96834.09;6110920;19;20003;-70
2024/03/10 08:38:11;;;;;;;52.72;25.55;;;;;;;0.69;100.00;96827.31;6112396;19;20019;-70
2024/03/10 08:40:12;;;;;;;48.70;25.13;;;;;;;0.73;100.00;96841.78;6110752;19;20002;-70
2024/03/10 08:42:15;;;;;;;44.38;23.40;;;;;;;0.75;100.00;96831.34;6108030;19;20027;-70
2024/03/10 08:44:15;;;;;;;43.17;23.42;;;;;;;0.80;100.00;96841.94;6111302;19;20339;-70
2024/03/10 08:46:16;;;;;;;41.60;22.15;;;;;;;0.88;100.00;96827.34;6111068;19;20060;-70
2024/03/10 08:48:17;;;;;;;41.65;21.67;;;;;;;0.97;100.00;96832.59;6110947;19;20491;-70
2024/03/10 08:50:17;;;;;;;46.60;23.25;;;;;;;1.08;100.00;96833.63;6111149;19;20066;-70
2024/03/10 08:52:18;;;;;;;42.33;22.00;;;;;;;1.13;100.00;96836.06;6110518;19;20010;-70
2024/03/10 08:54:18;;;;;;;50.05;22.02;;;;;;;1.25;100.00;96835.16;6111569;19;20006;-70
2024/03/10 08:56:19;;;;;;;49.35;23.33;;;;;;;1.34;100.00;96839.25;6108170;19;20377;-70
2024/03/10 08:58:19;;;;;;;47.92;24.15;;;;;;;1.40;100.00;96848.72;6111190;19;20010;-70
2024/03/10 09:00:20;;;;;;;46.25;23.50;;;;;;;1.50;100.00;96850.09;6107574;19;20010;-70
2024/03/10 09:02:20;;;;;;;49.60;24.23;;;;;;;1.60;100.00;96851.47;6108808;19;20011;-70
2024/03/10 09:04:20;;;;;;;59.25;27.33;;;;;;;1.65;100.00;96845.72;6110642;19;20025;-70
2024/03/10 09:06:24;;;;;;;49.72;24.55;;;;;;;1.73;100.00;96846.63;6111228;19;20043;-70
2024/03/10 09:08:24;;;;;;;53.25;26.23;;;;;;;1.82;100.00;96830.84;6109634;19;20021;-70
2024/03/10 09:10:25;;;;;;;52.08;26.08;;;;;;;1.89;100.00;96833.72;6109210;19;20069;-70
2024/03/10 09:12:27;;;;;;;50.90;26.48;;;;;;;1.94;100.00;96827.97;6109815;19;20047;-70
2024/03/10 09:14:29;;;;;;;50.80;24.42;;;;;;;2.04;100.00;96832.81;6109990;19;20006;-70
2024/03/10 09:16:29;;;;;;;51.53;27.00;;;;;;;2.09;100.00;96838.00;6111063;19;20014;-70
2024/03/10 09:18:29;;;;;;;53.45;25.83;;;;;;;2.17;100.00;96822.53;6110316;19;20030;-70
2024/03/10 09:20:30;;;;;;;53.38;27.60;;;;;;;2.23;100.00;96810.16;6110603;19;20015;-70
2024/03/10 09:22:30;;;;;;;49.72;25.45;;;;;;;2.30;100.00;96812.22;6109590;19;20574;-70
2024/03/10 09:24:30;;;;;;;48.60;25.52;;;;;;;2.39;100.00;96812.75;6110355;19;20015;-70
2024/03/10 09:26:31;;;;;;;52.72;26.88;;;;;;;2.45;100.00;96822.22;6110944;19;20959;-70
2024/03/10 09:28:32;;;;;;;50.35;26.77;;;;;;;2.52;100.00;96828.59;6109897;19;20022;-70
2024/03/10 09:30:33;;;;;;;55.30;28.80;;;;;;;2.58;100.00;96822.84;6108442;19;20043;-70
2024/03/10 09:32:34;;;;;;;55.45;31.83;;;;;;;2.67;100.00;96815.19;6108701;19;20010;-70